Time;durP1;ratioP1;P1;durP2;ratioP2;P2;SDS_P1;SDS_P2;PMS_P1;PMS_P2;Temp;Humidity;BMP_temperature;BMP_pressure;BME280_temperature;BME280_humidity;BME280_pressure;Samples;Min_cycle;Max_cycle;Signal;HPM_P1;HPM_P2
2024/04/11 00:01:15;;;;;;;0.20;0.10;;;;;;;23.31;37.77;102414.09;5496608;26;20271;-69
2024/04/11 00:03:41;;;;;;;0.20;0.10;;;;;;;23.29;37.83;102407.94;5492819;26;20218;-68
2024/04/11 00:06:07;;;;;;;0.20;0.10;;;;;;;23.30;37.43;102400.56;5486985;26;20330;-69
2024/04/11 00:08:33;;;;;;;0.20;0.10;;;;;;;23.29;37.43;102396.09;5487131;26;20339;-68
2024/04/11 00:10:59;;;;;;;0.20;0.10;;;;;;;23.27;37.36;102401.78;5482486;26;20274;-67
2024/04/11 00:13:25;;;;;;;0.20;0.10;;;;;;;23.27;37.31;102393.53;5485417;26;20274;-67
2024/04/11 00:15:55;;;;;;;0.20;0.10;;;;;;;23.26;37.60;102389.09;5479459;26;20714;-71
2024/04/11 00:18:23;;;;;;;0.20;0.10;;;;;;;23.27;37.65;102387.19;5479211;26;20227;-67
2024/04/11 00:20:49;;;;;;;0.20;0.10;;;;;;;23.24;37.44;102380.19;5484611;26;20246;-68
2024/04/11 00:23:16;;;;;;;0.20;0.10;;;;;;;23.25;37.37;102387.41;5456333;26;20276;-68
2024/04/11 00:25:42;;;;;;;0.20;0.20;;;;;;;23.23;37.51;102400.53;5482671;26;20349;-69
2024/04/11 00:28:11;;;;;;;0.20;0.10;;;;;;;23.23;37.82;102401.38;5453043;26;20235;-69
2024/04/11 00:30:37;;;;;;;0.20;0.10;;;;;;;23.21;37.78;102397.97;5510900;25;21192;-72
2024/04/11 00:33:03;;;;;;;0.20;0.10;;;;;;;23.21;37.77;102394.38;5484539;26;20319;-68
2024/04/11 00:35:30;;;;;;;0.20;0.10;;;;;;;23.19;37.40;102399.25;5485657;26;20279;-70
2024/04/11 00:37:57;;;;;;;0.20;0.10;;;;;;;23.20;37.56;102407.28;5480391;26;20232;-67
2024/04/11 00:40:23;;;;;;;0.20;0.10;;;;;;;23.18;37.81;102403.03;5499218;26;20266;-68
2024/04/11 00:42:50;;;;;;;0.20;0.10;;;;;;;23.18;37.44;102392.03;5492657;26;20232;-69
2024/04/11 00:45:16;;;;;;;0.20;0.10;;;;;;;23.16;37.57;102395.00;5496662;26;20273;-70
2024/04/11 00:47:43;;;;;;;0.20;0.10;;;;;;;23.15;37.63;102398.81;5478302;26;20333;-70
2024/04/11 00:50:09;;;;;;;0.20;0.10;;;;;;;23.15;37.46;102395.22;5486311;26;20226;-67
2024/04/11 00:52:38;;;;;;;0.20;0.10;;;;;;;-146.84;100.00;66378.44;5486978;26;20277;-67
2024/04/11 00:55:05;;;;;;;0.20;0.10;;;;;;;-146.84;100.00;66378.44;5483945;26;20224;-70
2024/04/11 00:57:31;;;;;;;0.20;0.10;;;;;;;-146.84;100.00;66378.44;5454087;26;20235;-67
2024/04/11 00:59:58;;;;;;;0.20;0.10;;;;;;;-146.84;100.00;66378.44;5481213;26;20273;-66
2024/04/11 01:02:24;;;;;;;0.20;0.10;;;;;;;-146.84;100.00;66378.44;5484617;26;20270;-71
2024/04/11 01:04:50;;;;;;;0.20;0.10;;;;;;;-146.84;100.00;66378.44;5479530;26;20232;-68
2024/04/11 01:07:16;;;;;;;0.20;0.10;;;;;;;-146.84;100.00;66378.44;5484874;26;20710;-69
2024/04/11 01:09:44;;;;;;;0.20;0.10;;;;;;;-146.84;100.00;66378.44;5484538;26;20231;-67
2024/04/11 01:12:16;;;;;;;0.20;0.10;;;;;;;-146.84;100.00;66378.44;5483554;26;20223;-67
2024/04/11 01:14:43;;;;;;;0.20;0.10;;;;;;;-146.84;100.00;66378.44;5484586;26;20274;-67
2024/04/11 01:17:13;;;;;;;0.20;0.20;;;;;;;-146.84;100.00;66378.44;5482302;26;20239;-68
2024/04/11 01:19:41;;;;;;;0.20;0.10;;;;;;;-146.84;100.00;66378.44;5487067;26;20223;-67
2024/04/11 01:22:10;;;;;;;0.20;0.10;;;;;;;-146.84;100.00;66378.44;5485984;26;20239;-67
2024/04/11 01:24:40;;;;;;;0.20;0.10;;;;;;;-146.84;100.00;66378.44;5483421;26;20269;-66
2024/04/11 01:27:11;;;;;;;0.20;0.10;;;;;;;-146.84;100.00;66378.44;5476977;26;20228;-67
2024/04/11 01:29:38;;;;;;;0.20;0.10;;;;;;;-146.84;100.00;66378.44;5481950;26;20223;-68
2024/04/11 01:32:05;;;;;;;0.20;0.10;;;;;;;-146.84;100.00;66378.44;5484006;26;20294;-67
2024/04/11 01:34:31;;;;;;;0.20;0.10;;;;;;;-146.84;100.00;66378.44;5483577;26;20329;-68
2024/04/11 01:36:58;;;;;;;0.20;0.10;;;;;;;-146.84;100.00;66378.44;5463860;26;20350;-68
2024/04/11 01:39:24;;;;;;;0.20;0.10;;;;;;;-146.84;100.00;66378.44;5483444;26;20274;-70
2024/04/11 01:41:51;;;;;;;0.20;0.10;;;;;;;-146.84;100.00;66378.44;5483394;26;20257;-68
2024/04/11 01:44:17;;;;;;;0.20;0.10;;;;;;;-146.84;100.00;66378.44;5455904;26;20237;-70
2024/04/11 01:46:43;;;;;;;0.20;0.10;;;;;;;-146.84;100.00;66378.44;5483011;26;20222;-69
2024/04/11 01:49:10;;;;;;;0.20;0.10;;;;;;;-146.84;100.00;66378.44;5485863;26;20227;-69
2024/04/11 01:51:36;;;;;;;0.20;0.03;;;;;;;-146.84;100.00;66378.44;5487026;26;20227;-67
2024/04/11 01:54:05;;;;;;;0.20;0.05;;;;;;;-146.84;100.00;66378.44;5474656;26;20278;-67
2024/04/11 01:56:34;;;;;;;0.20;0.10;;;;;;;-146.84;100.00;66378.44;5462311;26;20264;-70
2024/04/11 01:59:06;;;;;;;0.20;0.10;;;;;;;-146.84;100.00;66378.44;5479240;26;20364;-67
2024/04/11 02:01:34;;;;;;;0.20;0.10;;;;;;;-146.84;100.00;66378.44;5482221;26;20286;-69
2024/04/11 02:04:09;;;;;;;0.20;0.10;;;;;;;-146.84;100.00;66378.44;5487202;26;20228;-70
2024/04/11 02:06:37;;;;;;;0.20;0.10;;;;;;;-146.84;100.00;66378.44;5483367;26;20309;-69
2024/04/11 02:09:05;;;;;;;0.20;0.10;;;;;;;-146.84;100.00;66378.44;5476854;26;20227;-68
2024/04/11 02:11:33;;;;;;;0.20;0.10;;;;;;;-146.84;100.00;66378.44;5483045;26;20277;-67
2024/04/11 02:14:00;;;;;;;0.20;0.10;;;;;;;-146.84;100.00;66378.44;5478033;26;20348;-67
2024/04/11 02:16:32;;;;;;;0.20;0.10;;;;;;;-146.84;100.00;66378.44;5483079;26;20230;-67
2024/04/11 02:18:58;;;;;;;0.20;0.10;;;;;;;-146.84;100.00;66378.44;5475033;26;20553;-68
2024/04/11 02:21:24;;;;;;;0.20;0.10;;;;;;;-146.84;100.00;66378.44;5483298;26;20318;-68
2024/04/11 02:23:50;;;;;;;0.20;0.10;;;;;;;-146.84;100.00;66378.44;5486209;26;21443;-67
2024/04/11 02:26:17;;;;;;;0.20;0.10;;;;;;;-146.84;100.00;66378.44;5482674;26;20235;-67
2024/04/11 02:28:45;;;;;;;0.20;0.10;;;;;;;-146.84;100.00;66378.44;5479238;26;20227;-67
2024/04/11 02:31:11;;;;;;;0.20;0.10;;;;;;;-146.84;100.00;66378.44;5480174;26;21143;-69
2024/04/11 02:33:38;;;;;;;0.20;0.10;;;;;;;-146.84;100.00;66378.44;5482909;26;20590;-67
2024/04/11 02:36:06;;;;;;;0.20;0.10;;;;;;;-146.84;100.00;66378.44;5480927;26;20235;-68
2024/04/11 02:38:33;;;;;;;0.20;0.10;;;;;;;-146.84;100.00;66378.44;5476532;26;20909;-67
2024/04/11 02:40:59;;;;;;;0.20;0.10;;;;;;;-146.84;100.00;66378.44;5477277;26;20228;-68
2024/04/11 02:43:25;;;;;;;0.20;0.10;;;;;;;-146.84;100.00;66378.44;5475453;26;20591;-69
2024/04/11 02:45:53;;;;;;;0.20;0.10;;;;;;;-146.84;100.00;66378.44;5477953;26;20710;-71
2024/04/11 02:48:19;;;;;;;0.20;0.00;;;;;;;-146.84;100.00;66378.44;5507600;26;21092;-69
2024/04/11 02:50:46;;;;;;;0.20;0.10;;;;;;;-146.84;100.00;66378.44;5475981;26;20231;-68
2024/04/11 02:53:12;;;;;;;0.20;0.10;;;;;;;-146.84;100.00;66378.44;5480539;26;20240;-69
2024/04/11 02:55:40;;;;;;;0.20;0.10;;;;;;;-146.84;100.00;66378.44;5475837;26;20269;-67
2024/04/11 02:58:06;;;;;;;0.20;0.10;;;;;;;-146.84;100.00;66378.44;5481538;26;20239;-70
2024/04/11 03:00:32;;;;;;;0.20;0.10;;;;;;;-146.84;100.00;66378.44;5498191;26;20222;-67
2024/04/11 03:02:59;;;;;;;0.20;0.10;;;;;;;-146.84;100.00;66378.44;5497081;26;20234;-68
2024/04/11 03:05:25;;;;;;;0.20;0.10;;;;;;;-146.84;100.00;66378.44;5463830;26;20283;-70
2024/04/11 03:07:52;;;;;;;0.20;0.10;;;;;;;-146.84;100.00;66378.44;5478406;26;20273;-70
2024/04/11 03:10:18;;;;;;;0.20;0.10;;;;;;;-146.84;100.00;66378.44;5489852;26;20325;-68
2024/04/11 03:12:45;;;;;;;0.20;0.10;;;;;;;-146.84;100.00;66378.44;5495177;26;20277;-67
2024/04/11 03:15:11;;;;;;;0.20;0.13;;;;;;;-146.84;100.00;66378.44;5489866;26;20278;-67
2024/04/11 03:17:37;;;;;;;0.20;0.10;;;;;;;-146.84;100.00;66378.44;5488316;26;20273;-68
2024/04/11 03:20:04;;;;;;;0.20;0.10;;;;;;;23.15;37.46;102395.22;5484998;26;21046;-67
2024/04/11 03:22:31;;;;;;;0.20;0.10;;;;;;;22.77;37.97;102360.72;5488297;26;20765;-71
2024/04/11 03:24:57;;;;;;;0.20;0.10;;;;;;;22.78;37.65;102354.19;5488874;26;20745;-68
2024/04/11 03:27:23;;;;;;;0.20;0.10;;;;;;;22.78;37.81;102347.81;5485668;26;20351;-70
2024/04/11 03:29:50;;;;;;;0.20;0.10;;;;;;;22.78;37.97;102345.06;5493531;26;20228;-70
2024/04/11 03:32:16;;;;;;;0.20;0.10;;;;;;;22.77;37.90;102349.72;5481419;26;20240;-71
2024/04/11 03:34:42;;;;;;;0.20;0.10;;;;;;;22.76;37.81;102341.69;5475430;26;20227;-70
2024/04/11 03:37:09;;;;;;;0.20;0.10;;;;;;;22.75;37.82;102337.22;5488081;26;20592;-69
2024/04/11 03:39:35;;;;;;;0.20;0.10;;;;;;;22.75;37.63;102342.75;5487451;26;20274;-68
2024/04/11 03:42:02;;;;;;;0.20;0.10;;;;;;;22.76;37.62;102349.94;5485416;26;20330;-69
2024/04/11 03:44:28;;;;;;;0.20;0.10;;;;;;;22.75;37.71;102351.00;5487110;26;20254;-70
2024/04/11 03:46:54;;;;;;;0.20;0.10;;;;;;;22.74;37.88;102349.31;5485724;26;20325;-72
2024/04/11 03:49:20;;;;;;;0.20;0.10;;;;;;;22.74;37.77;102354.81;5483038;26;20500;-71
2024/04/11 03:51:49;;;;;;;0.20;0.10;;;;;;;22.73;37.71;102353.09;5508903;26;20610;-72
2024/04/11 03:54:16;;;;;;;0.20;0.10;;;;;;;22.74;37.98;102357.56;5478600;26;20236;-68
2024/04/11 03:56:42;;;;;;;0.20;0.10;;;;;;;22.73;37.89;102351.19;5484259;26;20273;-71
2024/04/11 03:59:08;;;;;;;0.20;0.10;;;;;;;22.73;37.83;102351.19;5482976;26;20227;-68
2024/04/11 04:01:36;;;;;;;0.20;0.10;;;;;;;22.72;37.78;102343.16;5483412;26;20311;-69
2024/04/11 04:04:03;;;;;;;0.20;0.10;;;;;;;22.72;38.12;102332.16;5486296;26;20342;-69
2024/04/11 04:06:36;;;;;;;0.20;0.10;;;;;;;22.72;38.18;102337.66;5484317;26;20594;-70
2024/04/11 04:09:09;;;;;;;0.20;0.10;;;;;;;22.72;37.92;102337.66;5478719;26;20224;-69
2024/04/11 04:11:38;;;;;;;0.20;0.10;;;;;;;22.71;37.90;102338.69;5487631;26;20298;-69
2024/04/11 04:14:08;;;;;;;0.20;0.10;;;;;;;22.72;37.84;102334.91;5479466;26;20775;-69
2024/04/11 04:16:35;;;;;;;0.20;0.10;;;;;;;22.73;37.99;102331.94;5494334;26;20272;-69
2024/04/11 04:19:02;;;;;;;0.20;0.10;;;;;;;22.73;37.98;102334.69;5479378;26;20228;-69
2024/04/11 04:21:29;;;;;;;0.20;0.10;;;;;;;22.74;37.90;102330.06;5490500;26;20265;-69
2024/04/11 04:23:55;;;;;;;0.20;0.10;;;;;;;22.74;38.00;102330.06;5491590;26;20338;-69
2024/04/11 04:26:30;;;;;;;0.20;0.10;;;;;;;22.74;38.00;102308.03;5485683;26;20974;-68
2024/04/11 04:28:57;;;;;;;0.20;0.10;;;;;;;22.74;37.88;102311.63;5483080;26;20273;-69
2024/04/11 04:31:31;;;;;;;0.20;0.10;;;;;;;22.75;38.10;102327.06;5484218;26;20227;-69
2024/04/11 04:33:59;;;;;;;0.20;0.10;;;;;;;22.77;38.16;102329.63;5487421;26;20223;-68
2024/04/11 04:36:34;;;;;;;0.20;0.10;;;;;;;22.77;37.92;102326.88;5475786;26;20294;-67
2024/04/11 04:39:00;;;;;;;0.20;0.10;;;;;;;22.79;38.07;102316.50;5489211;26;20589;-68
2024/04/11 04:41:30;;;;;;;0.20;0.10;;;;;;;22.79;38.01;102317.34;5468206;26;20231;-70
2024/04/11 04:44:00;;;;;;;0.20;0.10;;;;;;;22.79;38.01;102325.63;5484697;26;20315;-70
2024/04/11 04:46:28;;;;;;;0.20;0.10;;;;;;;22.80;37.83;102319.06;5479928;26;20345;-70
2024/04/11 04:48:55;;;;;;;0.20;0.10;;;;;;;22.80;38.05;102319.06;5486442;26;20546;-70
2024/04/11 04:51:23;;;;;;;0.20;0.10;;;;;;;22.80;37.89;102324.56;5549628;25;20230;-70
2024/04/11 04:53:50;;;;;;;0.20;0.10;;;;;;;22.80;37.83;102329.19;5510920;26;20225;-70
2024/04/11 04:56:18;;;;;;;0.20;0.10;;;;;;;22.81;38.12;102325.41;5482888;26;20768;-70
2024/04/11 04:58:44;;;;;;;0.20;0.10;;;;;;;22.81;37.89;102325.41;5485313;26;20223;-70
2024/04/11 05:01:10;;;;;;;0.20;0.10;;;;;;;22.81;38.05;102325.41;5492498;26;20228;-71
2024/04/11 05:03:40;;;;;;;0.20;0.10;;;;;;;22.80;37.76;102321.81;5488280;26;20235;-70
2024/04/11 05:06:12;;;;;;;0.20;0.10;;;;;;;22.81;38.04;102319.91;5478197;26;20738;-70
2024/04/11 05:08:44;;;;;;;0.20;0.10;;;;;;;22.82;38.00;102316.97;5485402;26;20914;-70
2024/04/11 05:11:10;;;;;;;0.20;0.10;;;;;;;22.82;37.93;102318.84;5454809;26;20231;-70
2024/04/11 05:13:41;;;;;;;0.20;0.10;;;;;;;22.80;37.92;102309.94;5494665;26;20727;-70
2024/04/11 05:16:08;;;;;;;0.20;0.10;;;;;;;22.81;37.82;102307.00;5473940;26;20224;-70
2024/04/11 05:18:38;;;;;;;0.20;0.10;;;;;;;22.82;37.78;102310.59;5497874;26;20236;-70
2024/04/11 05:21:16;;;;;;;0.20;0.10;;;;;;;22.81;37.79;102308.91;5476283;26;20271;-71
2024/04/11 05:23:42;;;;;;;0.20;0.10;;;;;;;22.82;37.74;102314.22;5485161;26;20318;-68
2024/04/11 05:26:15;;;;;;;0.20;0.10;;;;;;;22.81;37.45;102317.16;5478468;26;20240;-69
2024/04/11 05:28:46;;;;;;;0.20;0.10;;;;;;;22.81;37.83;102320.75;5494135;26;20286;-69
2024/04/11 05:31:16;;;;;;;0.20;0.10;;;;;;;22.82;37.76;102332.59;5487407;26;20334;-69
2024/04/11 05:33:44;;;;;;;0.20;0.10;;;;;;;22.81;37.72;102331.75;5481615;26;20239;-68
2024/04/11 05:36:17;;;;;;;0.20;0.10;;;;;;;22.81;37.92;102347.44;5484395;26;20235;-68
2024/04/11 05:38:44;;;;;;;0.20;0.10;;;;;;;22.81;37.88;102350.19;5500434;26;21189;-68
2024/04/11 05:41:11;;;;;;;0.20;0.10;;;;;;;22.82;37.74;102349.09;5483106;26;20272;-68
2024/04/11 05:43:42;;;;;;;0.20;0.10;;;;;;;22.82;37.91;102346.34;5483259;26;20284;-69
2024/04/11 05:46:10;;;;;;;0.20;0.10;;;;;;;22.81;37.80;102347.44;5485128;26;20766;-68
2024/04/11 05:48:37;;;;;;;0.20;0.10;;;;;;;22.81;37.57;102347.44;5482933;26;20261;-68
2024/04/11 05:51:06;;;;;;;0.20;0.10;;;;;;;22.80;37.88;102352.09;5483326;26;20663;-68
2024/04/11 05:53:36;;;;;;;0.20;0.10;;;;;;;22.81;37.67;102350.19;5475080;26;20226;-68
2024/04/11 05:56:06;;;;;;;0.20;0.10;;;;;;;22.81;37.79;102363.94;5500070;26;20226;-68
2024/04/11 05:58:32;;;;;;;0.20;0.10;;;;;;;22.80;38.01;102362.22;5497986;25;20230;-69
2024/04/11 06:01:00;;;;;;;0.20;0.10;;;;;;;22.80;37.85;102367.72;5484362;26;20277;-69
2024/04/11 06:03:28;;;;;;;0.20;0.10;;;;;;;22.80;37.73;102370.47;5485132;26;20223;-69
2024/04/11 06:05:54;;;;;;;0.20;0.10;;;;;;;22.81;37.72;102383.19;5484531;26;20231;-69
2024/04/11 06:08:23;;;;;;;0.20;0.10;;;;;;;22.80;37.56;102384.22;5485415;26;20272;-69
2024/04/11 06:10:50;;;;;;;0.20;0.10;;;;;;;22.80;37.92;102389.72;5474136;26;20298;-69
2024/04/11 06:13:19;;;;;;;0.20;0.10;;;;;;;22.80;37.89;102382.34;5483709;26;20230;-68
2024/04/11 06:15:47;;;;;;;0.20;0.10;;;;;;;22.80;37.99;102386.97;5492500;25;20330;-68
2024/04/11 06:18:15;;;;;;;0.20;0.10;;;;;;;22.80;37.90;102386.97;5481648;26;20317;-68
2024/04/11 06:20:43;;;;;;;0.20;0.10;;;;;;;22.80;37.87;102386.97;5485235;26;20226;-68
2024/04/11 06:23:09;;;;;;;0.20;0.10;;;;;;;22.80;37.76;102378.72;5470639;26;20267;-68
2024/04/11 06:25:39;;;;;;;0.20;0.10;;;;;;;22.80;37.89;102392.47;5481725;26;21118;-68
2024/04/11 06:28:06;;;;;;;0.20;0.10;;;;;;;22.80;37.62;102395.22;5489003;26;20569;-68
2024/04/11 06:30:38;;;;;;;0.20;0.10;;;;;;;22.81;37.83;102402.44;5437880;26;20235;-69
2024/04/11 06:33:08;;;;;;;0.20;0.10;;;;;;;22.80;37.98;102401.59;5482756;26;20560;-68
2024/04/11 06:35:35;;;;;;;0.20;0.10;;;;;;;22.81;38.00;102407.94;5476784;26;20332;-68
2024/04/11 06:38:04;;;;;;;0.20;0.10;;;;;;;22.81;37.75;102405.19;5483221;26;20223;-68
2024/04/11 06:40:32;;;;;;;0.20;0.10;;;;;;;22.81;37.75;102413.47;5480104;26;20342;-68
2024/04/11 06:42:59;;;;;;;0.20;0.10;;;;;;;22.80;37.78;102415.38;5483347;26;20600;-68
2024/04/11 06:45:25;;;;;;;0.20;0.10;;;;;;;22.80;37.88;102418.13;5495754;26;20230;-68
2024/04/11 06:47:55;;;;;;;0.20;0.10;;;;;;;22.81;37.92;102418.97;5483102;26;20239;-68
2024/04/11 06:50:21;;;;;;;0.20;0.10;;;;;;;22.80;37.69;102420.88;5483218;26;20228;-69
2024/04/11 06:52:48;;;;;;;0.20;0.10;;;;;;;22.82;37.69;102420.63;5480795;26;20239;-69
2024/04/11 06:55:14;;;;;;;0.20;0.10;;;;;;;22.80;37.93;102411.75;5482428;26;20227;-69
2024/04/11 06:57:43;;;;;;;0.20;0.10;;;;;;;22.80;38.12;102420.00;5483337;26;20292;-68
2024/04/11 07:00:26;;;;;;;0.20;0.10;;;;;;;22.80;37.96;102425.50;5495232;26;20281;-68
2024/04/11 07:02:54;;;;;;;0.20;0.10;;;;;;;22.79;37.84;102426.56;5464044;26;20228;-68
2024/04/11 07:05:21;;;;;;;0.20;0.10;;;;;;;22.79;37.82;102421.06;5479177;26;20249;-68
2024/04/11 07:07:54;;;;;;;0.20;0.10;;;;;;;22.80;39.15;102434.63;5491177;26;20222;-72
2024/04/11 07:10:32;;;;;;;0.20;0.10;;;;;;;22.82;38.20;102427.03;5486998;26;20290;-72
2024/04/11 07:12:59;;;;;;;0.20;0.10;;;;;;;22.86;38.37;102438.44;5474439;26;20274;-71
2024/04/11 07:15:29;;;;;;;0.20;0.10;;;;;;;22.90;38.17;102434.25;5483593;26;20239;-72
2024/04/11 07:17:58;;;;;;;0.20;0.10;;;;;;;22.95;38.09;102448.22;5480148;26;20324;-72
2024/04/11 07:20:31;;;;;;;0.20;0.10;;;;;;;22.98;38.11;102445.09;5479625;26;20328;-72
2024/04/11 07:23:04;;;;;;;0.20;0.10;;;;;;;23.01;37.93;102446.59;5495729;26;20287;-74
2024/04/11 07:25:32;;;;;;;0.20;0.10;;;;;;;23.05;37.70;102453.41;5486578;26;20223;-71
2024/04/11 07:28:00;;;;;;;0.20;0.10;;;;;;;23.08;37.94;102455.75;5482946;26;20297;-74
2024/04/11 07:30:29;;;;;;;0.20;0.10;;;;;;;23.11;37.95;102462.72;5458372;26;20238;-73
2024/04/11 07:32:56;;;;;;;0.20;0.10;;;;;;;23.13;37.96;102450.47;5482114;26;20230;-72
2024/04/11 07:35:26;;;;;;;0.20;0.10;;;;;;;23.17;38.01;102450.91;5483458;26;20226;-72
2024/04/11 07:37:53;;;;;;;0.20;0.10;;;;;;;23.19;38.38;102457.91;5456683;26;20962;-71
2024/04/11 07:40:28;;;;;;;0.20;0.10;;;;;;;23.22;37.46;102454.72;5482585;26;20275;-76
2024/04/11 07:42:56;;;;;;;0.20;0.17;;;;;;;23.26;38.12;102448.84;5481515;26;20821;-73
2024/04/11 07:45:30;;;;;;;0.20;0.10;;;;;;;23.29;37.44;102448.41;5454261;26;20281;-74
2024/04/11 07:47:59;;;;;;;0.20;0.10;;;;;;;23.31;37.79;102446.28;5450195;26;20247;-74
2024/04/11 07:50:28;;;;;;;0.20;0.10;;;;;;;23.34;37.54;102446.75;5478534;26;20960;-74
2024/04/11 07:52:57;;;;;;;0.20;0.10;;;;;;;23.36;36.89;102439.13;5486885;26;20277;-73
2024/04/11 07:55:23;;;;;;;0.20;0.10;;;;;;;23.39;37.33;102435.09;5487231;26;21405;-77
2024/04/11 07:57:51;;;;;;;0.20;0.10;;;;;;;23.42;37.42;102426.41;5485765;25;20230;-71
2024/04/11 08:00:23;;;;;;;0.20;0.10;;;;;;;23.43;36.90;102434.47;5498437;26;20233;-75
2024/04/11 08:02:49;;;;;;;0.20;0.10;;;;;;;23.47;37.22;102454.19;5486529;26;20277;-73
2024/04/11 08:05:16;;;;;;;0.20;0.10;;;;;;;23.50;37.08;102445.53;5465484;26;20535;-74
2024/04/11 08:07:42;;;;;;;0.20;0.10;;;;;;;23.52;36.98;102456.31;5485637;26;20331;-72
2024/04/11 08:10:13;;;;;;;0.20;0.10;;;;;;;23.54;37.00;102466.09;5486993;26;20363;-72
2024/04/11 08:12:41;;;;;;;0.20;0.10;;;;;;;23.56;37.33;102472.22;5484181;26;20235;-72
2024/04/11 08:15:07;;;;;;;0.20;0.10;;;;;;;23.58;37.05;102470.09;5484486;26;20641;-70
2024/04/11 08:17:37;;;;;;;0.20;0.10;;;;;;;23.60;36.97;102478.16;5484895;26;21089;-68
2024/04/11 08:20:12;;;;;;;0.20;0.10;;;;;;;23.62;36.83;102476.06;5481055;26;20283;-71
2024/04/11 08:22:39;;;;;;;0.20;0.10;;;;;;;23.63;36.98;102481.38;5485766;26;20303;-71
2024/04/11 08:25:14;;;;;;;0.20;0.10;;;;;;;23.64;37.15;102479.44;5478538;26;20291;-73
2024/04/11 08:27:44;;;;;;;0.20;0.10;;;;;;;23.66;37.17;102489.19;5481837;26;20256;-71
2024/04/11 08:30:11;;;;;;;0.20;0.10;;;;;;;23.67;37.14;102490.88;5478301;26;20227;-70
2024/04/11 08:32:45;;;;;;;0.20;0.10;;;;;;;23.69;36.93;102503.63;5486496;26;20227;-68
2024/04/11 08:35:20;;;;;;;0.20;0.10;;;;;;;23.71;36.99;102499.59;5478139;26;20222;-70
2024/04/11 08:37:51;;;;;;;0.20;0.10;;;;;;;23.71;36.90;102496.00;5484571;26;20393;-68
2024/04/11 08:40:18;;;;;;;0.20;0.10;;;;;;;23.73;37.10;102500.25;5480578;26;20813;-70
2024/04/11 08:42:45;;;;;;;0.20;0.10;;;;;;;23.74;37.07;102493.66;5484086;26;20254;-69
2024/04/11 08:45:12;;;;;;;0.20;0.10;;;;;;;23.75;37.13;102492.66;5489840;26;20636;-70
2024/04/11 08:47:39;;;;;;;0.20;0.13;;;;;;;23.76;37.87;102499.84;5490665;26;20234;-70
2024/04/11 08:50:06;;;;;;;0.20;0.10;;;;;;;23.78;36.93;102496.91;5485843;26;20784;-71
2024/04/11 08:52:36;;;;;;;0.20;0.10;;;;;;;23.79;36.86;102507.72;5485192;26;20698;-69
2024/04/11 08:55:02;;;;;;;0.20;0.10;;;;;;;23.81;36.68;102507.50;5494202;26;20717;-69
2024/04/11 08:57:29;;;;;;;0.20;0.10;;;;;;;23.82;37.28;102509.19;5516572;25;20337;-73
2024/04/11 08:59:56;;;;;;;0.20;0.10;;;;;;;23.83;36.77;102516.41;5484827;26;20831;-70
2024/04/11 09:02:23;;;;;;;0.20;0.10;;;;;;;23.84;36.72;102513.44;5485004;26;20227;-70
2024/04/11 09:04:49;;;;;;;0.20;0.10;;;;;;;23.85;36.76;102522.56;5493757;26;20222;-70
2024/04/11 09:07:21;;;;;;;0.20;0.10;;;;;;;23.88;36.87;102524.03;5496857;26;20331;-71
2024/04/11 09:09:51;;;;;;;0.20;0.10;;;;;;;23.89;36.57;102515.56;5456055;26;20695;-70
2024/04/11 09:12:22;;;;;;;0.20;0.10;;;;;;;23.90;36.70;102522.81;5483503;26;20273;-69
2024/04/11 09:14:48;;;;;;;0.20;0.10;;;;;;;23.90;36.62;102525.56;5498189;26;20342;-70
2024/04/11 09:17:18;;;;;;;0.20;0.10;;;;;;;23.92;36.66;102533.59;5478476;26;20228;-69
2024/04/11 09:19:45;;;;;;;0.20;0.10;;;;;;;-146.84;100.00;66378.44;5487642;26;20648;-71
2024/04/11 09:22:13;;;;;;;0.20;0.10;;;;;;;23.94;37.02;102534.25;5444528;26;20240;-72
2024/04/11 09:24:48;;;;;;;0.20;0.10;;;;;;;23.94;36.72;102535.06;5484192;26;20758;-72
2024/04/11 09:27:16;;;;;;;0.20;0.10;;;;;;;23.96;36.80;102529.38;5495475;26;20273;-72
2024/04/11 09:29:43;;;;;;;0.20;0.10;;;;;;;23.98;37.20;102538.28;5485110;26;20294;-73
2024/04/11 09:32:16;;;;;;;0.20;0.10;;;;;;;23.98;36.93;102546.53;5489568;26;20329;-73
2024/04/11 09:34:47;;;;;;;0.20;0.10;;;;;;;23.99;36.90;102557.38;5467117;26;20279;-72
2024/04/11 09:37:16;;;;;;;0.20;0.10;;;;;;;24.00;36.97;102552.69;5484164;26;20227;-69
2024/04/11 09:39:46;;;;;;;0.20;0.10;;;;;;;24.01;36.84;102558.03;5477796;26;20231;-70
2024/04/11 09:42:19;;;;;;;0.20;0.10;;;;;;;24.03;36.83;102555.03;5484561;26;20226;-72
2024/04/11 09:44:48;;;;;;;0.20;0.10;;;;;;;24.04;36.69;102556.75;5492370;26;20273;-73
2024/04/11 09:47:18;;;;;;;0.20;0.10;;;;;;;24.05;36.83;102570.31;5485149;26;20329;-72
2024/04/11 09:49:53;;;;;;;0.20;0.10;;;;;;;24.05;36.76;102563.94;5454363;26;20227;-71
2024/04/11 09:52:27;;;;;;;0.20;0.10;;;;;;;24.06;36.67;102560.16;5485508;26;20234;-71
2024/04/11 09:55:02;;;;;;;0.20;0.10;;;;;;;24.07;36.47;102556.31;5483986;26;20223;-70
2024/04/11 09:57:29;;;;;;;0.20;0.10;;;;;;;24.10;36.31;102561.41;5484163;26;20571;-71
2024/04/11 09:59:55;;;;;;;0.20;0.10;;;;;;;24.11;36.78;102565.03;5472522;26;20323;-70
2024/04/11 10:02:24;;;;;;;0.20;0.05;;;;;;;24.12;36.56;102561.19;5495541;26;20235;-73
2024/04/11 10:04:57;;;;;;;0.20;0.10;;;;;;;24.12;36.78;102562.03;5484794;26;20255;-73
2024/04/11 10:07:26;;;;;;;0.20;0.10;;;;;;;24.13;37.09;102569.28;5509637;26;20229;-73
2024/04/11 10:09:57;;;;;;;0.20;0.10;;;;;;;24.14;37.58;102561.84;5484324;26;20237;-72
2024/04/11 10:12:28;;;;;;;0.20;0.10;;;;;;;24.15;37.09;102569.03;5495765;26;20230;-75
2024/04/11 10:14:57;;;;;;;0.20;0.10;;;;;;;24.16;37.38;102576.28;5472516;26;20722;-70
2024/04/11 10:17:28;;;;;;;0.20;0.10;;;;;;;24.16;36.96;102582.63;5477768;26;20278;-70
2024/04/11 10:19:59;;;;;;;0.20;0.10;;;;;;;24.18;36.84;102582.44;5497155;26;20312;-70
2024/04/11 10:22:26;;;;;;;0.20;0.10;;;;;;;24.18;37.09;102591.53;5484623;26;20270;-71
2024/04/11 10:25:06;;;;;;;0.20;0.10;;;;;;;24.20;37.23;102588.59;5485644;26;20230;-71
2024/04/11 10:27:34;;;;;;;0.20;0.10;;;;;;;24.20;37.27;102594.94;5479741;26;20228;-73
2024/04/11 10:30:07;;;;;;;0.20;0.10;;;;;;;24.22;36.97;102595.59;5485231;26;20774;-73
2024/04/11 10:32:36;;;;;;;0.20;0.10;;;;;;;24.23;37.41;102600.03;5485074;26;20239;-68
2024/04/11 10:35:05;;;;;;;0.20;0.10;;;;;;;24.26;37.12;102594.13;5482795;26;20710;-73
2024/04/11 10:37:33;;;;;;;0.20;0.10;;;;;;;24.29;37.02;102592.84;5479469;26;20295;-68
2024/04/11 10:40:00;;;;;;;0.20;0.10;;;;;;;24.31;37.91;102600.91;5484946;26;20227;-69
2024/04/11 10:42:36;;;;;;;0.20;0.10;;;;;;;24.33;37.60;102598.78;5482122;26;20286;-68
2024/04/11 10:45:17;;;;;;;0.20;0.10;;;;;;;24.36;37.02;102595.63;5482250;26;20226;-70
2024/04/11 10:47:44;;;;;;;0.20;0.10;;;;;;;24.38;37.38;102596.25;5488027;26;20310;-68
2024/04/11 10:50:13;;;;;;;0.20;0.10;;;;;;;24.39;37.37;102603.47;5482758;26;20234;-70
2024/04/11 10:52:46;;;;;;;0.20;0.10;;;;;;;24.40;37.38;102602.41;5479545;26;20279;-67
2024/04/11 10:55:28;;;;;;;0.20;0.10;;;;;;;24.42;37.17;102600.28;5482278;26;20235;-70
2024/04/11 10:58:13;;;;;;;0.20;0.10;;;;;;;24.44;36.97;102617.50;5484642;26;20230;-70
2024/04/11 11:03:42;;;;;;;0.20;0.10;;;;;;;24.44;36.85;102618.34;5482655;26;20223;-70
2024/04/11 11:06:25;;;;;;;0.20;0.10;;;;;;;24.45;37.08;102619.19;5481975;26;20239;-70
2024/04/11 11:08:59;;;;;;;0.20;0.10;;;;;;;24.45;37.07;102611.75;5470622;26;20327;-70
2024/04/11 11:11:26;;;;;;;0.20;0.10;;;;;;;24.46;36.87;102623.63;5480186;26;20238;-70
2024/04/11 11:13:54;;;;;;;0.20;0.10;;;;;;;24.46;36.70;102620.84;5444137;26;20240;-70
2024/04/11 11:16:22;;;;;;;0.20;0.10;;;;;;;24.45;36.71;102622.78;5481799;26;20640;-68
2024/04/11 11:18:48;;;;;;;0.20;0.10;;;;;;;24.47;36.94;102625.34;5486418;26;20281;-68
2024/04/11 11:21:19;;;;;;;0.20;0.10;;;;;;;24.47;36.48;102625.34;5487958;26;20223;-68
2024/04/11 11:23:46;;;;;;;0.20;0.10;;;;;;;24.48;36.97;102616.00;5485081;26;20377;-68
2024/04/11 11:26:22;;;;;;;0.20;0.10;;;;;;;24.48;36.69;102610.50;5485903;26;20252;-68
2024/04/11 11:28:51;;;;;;;0.20;0.10;;;;;;;24.48;36.57;102619.66;5485700;26;20261;-68
2024/04/11 11:31:20;;;;;;;0.20;0.10;;;;;;;24.50;36.82;102615.81;5487486;26;20228;-68